createdAt,value
2017-04-07T00:00:00.093Z,0
2017-04-07T00:00:40.659Z,0
2017-04-07T00:01:21.244Z,0
2017-04-07T00:02:01.837Z,0
2017-04-07T00:02:42.407Z,0
2017-04-07T00:03:23.002Z,0
2017-04-07T00:04:03.571Z,0
2017-04-07T00:04:44.144Z,0
2017-04-07T00:05:24.716Z,0
2017-04-07T00:06:05.307Z,0
2017-04-07T00:06:45.860Z,0
2017-04-07T00:07:26.438Z,0
2017-04-07T00:08:07.023Z,0
2017-04-07T00:08:47.604Z,0
2017-04-07T00:09:28.191Z,0
2017-04-07T00:10:08.779Z,0
2017-04-07T00:10:49.365Z,0
2017-04-07T00:11:29.944Z,0
2017-04-07T00:12:10.527Z,0
2017-04-07T00:12:51.084Z,0
2017-04-07T00:13:31.679Z,0
2017-04-07T00:14:12.254Z,0
2017-04-07T00:14:52.840Z,0
2017-04-07T00:15:33.434Z,0
2017-04-07T00:16:13.992Z,0
2017-04-07T00:16:54.596Z,0
2017-04-07T00:17:35.186Z,0
2017-04-07T00:18:15.777Z,0
2017-04-07T00:18:56.357Z,0
2017-04-07T00:19:36.966Z,0
2017-04-07T00:20:17.528Z,0
2017-04-07T00:20:58.100Z,0
2017-04-07T00:21:38.693Z,0
2017-04-07T00:22:19.271Z,0
2017-04-07T00:22:59.836Z,0
2017-04-07T00:23:40.456Z,0
2017-04-07T00:24:21.017Z,0
2017-04-07T00:25:01.602Z,0
2017-04-07T00:25:42.205Z,0
2017-04-07T00:26:22.792Z,0
2017-04-07T00:27:03.365Z,0
2017-04-07T00:27:43.949Z,0
2017-04-07T00:28:24.547Z,0
2017-04-07T00:29:05.119Z,0
2017-04-07T00:29:45.726Z,0
2017-04-07T00:30:26.348Z,0
2017-04-07T00:31:06.978Z,0
2017-04-07T00:31:47.596Z,0
2017-04-07T00:32:28.184Z,0
2017-04-07T00:33:08.763Z,0
2017-04-07T00:33:49.372Z,0
2017-04-07T00:34:29.966Z,0
2017-04-07T00:35:10.543Z,0
2017-04-07T00:35:51.130Z,0
2017-04-07T00:36:31.707Z,0
2017-04-07T00:37:12.286Z,0
2017-04-07T00:37:52.873Z,0
2017-04-07T00:38:33.450Z,0
2017-04-07T00:39:14.037Z,0
2017-04-07T00:39:54.611Z,0
2017-04-07T00:40:35.180Z,0
2017-04-07T00:41:15.778Z,0
2017-04-07T00:41:56.334Z,0
2017-04-07T00:42:36.905Z,0
2017-04-07T00:43:17.479Z,0
2017-04-07T00:43:58.054Z,0
2017-04-07T00:44:38.635Z,0
2017-04-07T00:45:19.209Z,0
2017-04-07T00:45:59.798Z,0
2017-04-07T00:46:40.370Z,0
2017-04-07T00:47:20.936Z,0
2017-04-07T00:48:01.548Z,0
2017-04-07T00:48:42.112Z,0
2017-04-07T00:49:22.693Z,0
2017-04-07T00:50:03.297Z,0
2017-04-07T00:50:43.869Z,0
2017-04-07T00:51:24.443Z,0
2017-04-07T00:52:05.029Z,0
2017-04-07T00:52:45.601Z,0
2017-04-07T00:53:32.819Z,0
2017-04-07T00:54:13.402Z,0
2017-04-07T00:54:53.973Z,0
2017-04-07T00:55:34.542Z,0
2017-04-07T00:56:15.142Z,0
2017-04-07T00:56:55.710Z,0
2017-04-07T00:57:36.348Z,0
2017-04-07T00:58:16.942Z,0
2017-04-07T00:58:57.494Z,0
2017-04-07T00:59:38.101Z,0
2017-04-07T01:00:18.688Z,0
2017-04-07T01:00:59.284Z,0
2017-04-07T01:01:39.859Z,0
2017-04-07T01:02:20.485Z,0
2017-04-07T01:03:01.063Z,0
2017-04-07T01:03:41.628Z,0
2017-04-07T01:04:22.223Z,0
2017-04-07T01:05:02.794Z,0
2017-04-07T01:05:43.374Z,0
2017-04-07T01:06:23.953Z,0
2017-04-07T01:07:04.518Z,0
2017-04-07T01:07:45.089Z,0
2017-04-07T01:08:25.682Z,0
2017-04-07T01:09:06.276Z,0
2017-04-07T01:09:46.854Z,0
2017-04-07T01:10:27.461Z,0
2017-04-07T01:11:08.026Z,0
2017-04-07T01:11:48.605Z,0
2017-04-07T01:12:29.171Z,0
2017-04-07T01:13:09.785Z,0
2017-04-07T01:13:50.364Z,0
2017-04-07T01:14:31.001Z,0
2017-04-07T01:15:11.574Z,0
2017-04-07T01:15:52.176Z,0
2017-04-07T01:16:32.747Z,0
2017-04-07T01:17:13.334Z,0
2017-04-07T01:17:53.909Z,0
2017-04-07T01:18:34.483Z,0
2017-04-07T01:19:15.056Z,0
2017-04-07T01:19:55.619Z,0
2017-04-07T01:20:36.181Z,0
2017-04-07T01:21:16.762Z,0
2017-04-07T01:21:57.348Z,0
2017-04-07T01:22:37.969Z,0
2017-04-07T01:23:18.550Z,0
2017-04-07T01:23:59.128Z,0
2017-04-07T01:24:39.701Z,0
2017-04-07T01:25:20.292Z,0
2017-04-07T01:26:00.902Z,0
2017-04-07T01:26:41.489Z,0
2017-04-07T01:27:22.065Z,0
2017-04-07T01:28:02.634Z,0
2017-04-07T01:28:43.219Z,0
2017-04-07T01:29:23.792Z,0
2017-04-07T01:30:04.362Z,0
2017-04-07T01:30:44.938Z,0
2017-04-07T01:31:25.508Z,0
2017-04-07T01:32:06.079Z,0
2017-04-07T01:32:46.652Z,0
2017-04-07T01:33:27.224Z,0
2017-04-07T01:34:07.798Z,0
2017-04-07T01:34:48.364Z,0
2017-04-07T01:35:28.954Z,0
2017-04-07T01:36:09.527Z,0
2017-04-07T01:36:50.086Z,0
2017-04-07T01:37:30.675Z,0
2017-04-07T01:38:11.285Z,0
2017-04-07T01:38:51.892Z,0
2017-04-07T01:39:32.446Z,0
2017-04-07T01:40:13.029Z,0
2017-04-07T01:40:53.605Z,0
2017-04-07T01:41:34.182Z,0
2017-04-07T01:42:14.762Z,0
2017-04-07T01:42:55.330Z,0
2017-04-07T01:43:35.916Z,0
2017-04-07T01:44:16.488Z,0
2017-04-07T01:44:57.053Z,0
2017-04-07T01:45:37.627Z,0
2017-04-07T01:46:18.203Z,0
2017-04-07T01:46:58.780Z,0
2017-04-07T01:47:39.352Z,0
2017-04-07T01:48:19.941Z,0
2017-04-07T01:49:00.506Z,0
2017-04-07T01:49:41.082Z,0
2017-04-07T01:50:21.650Z,0
2017-04-07T01:51:02.230Z,0
2017-04-07T01:51:42.796Z,0
2017-04-07T01:52:23.390Z,0
2017-04-07T01:53:03.940Z,0
2017-04-07T01:53:44.510Z,0
2017-04-07T01:54:25.079Z,0
2017-04-07T01:55:05.657Z,0
2017-04-07T01:55:46.233Z,0
2017-04-07T01:56:26.817Z,0
2017-04-07T01:57:07.395Z,0
2017-04-07T01:57:48.024Z,0
2017-04-07T01:58:28.630Z,0
2017-04-07T01:59:09.201Z,0
2017-04-07T01:59:49.774Z,0
2017-04-07T02:00:30.370Z,0
2017-04-07T02:01:10.957Z,0
2017-04-07T02:01:51.526Z,0
2017-04-07T02:02:32.139Z,0
2017-04-07T02:03:12.704Z,0
2017-04-07T02:03:53.286Z,0
2017-04-07T02:04:33.855Z,0
2017-04-07T02:05:14.422Z,0
2017-04-07T02:05:55.058Z,0
2017-04-07T02:06:35.629Z,0
2017-04-07T02:07:16.214Z,0
2017-04-07T02:07:56.811Z,0
2017-04-07T02:08:37.418Z,0
2017-04-07T02:09:18.005Z,0
2017-04-07T02:09:58.563Z,0
2017-04-07T02:10:39.138Z,0
2017-04-07T02:11:19.725Z,0
2017-04-07T02:12:00.311Z,0
2017-04-07T02:12:40.917Z,0
2017-04-07T02:13:21.522Z,0
2017-04-07T02:14:02.100Z,0
2017-04-07T02:14:42.696Z,0
2017-04-07T02:15:23.320Z,0
2017-04-07T02:16:03.889Z,0
2017-04-07T02:16:44.489Z,0
2017-04-07T02:17:25.088Z,0
2017-04-07T02:18:05.646Z,0
2017-04-07T02:18:46.233Z,0
2017-04-07T02:19:26.806Z,0
2017-04-07T02:20:07.403Z,0
2017-04-07T02:20:48.018Z,0
2017-04-07T02:21:28.583Z,0
2017-04-07T02:22:09.161Z,0
2017-04-07T02:22:49.756Z,0
2017-04-07T02:23:30.362Z,0
2017-04-07T02:24:10.991Z,0
2017-04-07T02:24:51.570Z,0
2017-04-07T02:25:32.158Z,0
2017-04-07T02:26:12.747Z,0
2017-04-07T02:26:53.310Z,0
2017-04-07T02:27:33.883Z,0
2017-04-07T02:28:14.536Z,0
2017-04-07T02:28:55.098Z,0
2017-04-07T02:29:35.719Z,0
2017-04-07T02:30:16.282Z,0
2017-04-07T02:30:56.857Z,0
2017-04-07T02:31:37.431Z,0
2017-04-07T02:32:18.025Z,0
2017-04-07T02:32:58.591Z,0
2017-04-07T02:33:39.191Z,0
2017-04-07T02:34:19.777Z,0
2017-04-07T02:35:00.420Z,0
2017-04-07T02:35:41.012Z,0
2017-04-07T02:36:21.594Z,0
2017-04-07T02:37:02.158Z,0
2017-04-07T02:37:42.737Z,0
2017-04-07T02:38:23.344Z,0
2017-04-07T02:39:03.920Z,0
2017-04-07T02:39:44.509Z,0
2017-04-07T02:40:25.095Z,0
2017-04-07T02:41:05.691Z,0
2017-04-07T02:41:46.259Z,0
2017-04-07T02:42:26.841Z,0
2017-04-07T02:43:07.400Z,0
2017-04-07T02:43:47.970Z,0
2017-04-07T02:44:28.542Z,0
2017-04-07T02:45:09.115Z,0
2017-04-07T02:45:49.709Z,0
2017-04-07T02:46:30.288Z,0
2017-04-07T02:47:10.847Z,0
2017-04-07T02:47:51.416Z,0
2017-04-07T02:48:32.032Z,0
2017-04-07T02:49:12.607Z,0
2017-04-07T02:49:53.166Z,0
2017-04-07T02:50:33.776Z,0
2017-04-07T02:51:14.364Z,0
2017-04-07T02:51:54.945Z,0
2017-04-07T02:52:35.558Z,0
2017-04-07T02:53:16.155Z,0
2017-04-07T02:53:56.724Z,0
2017-04-07T02:54:37.297Z,0
2017-04-07T02:55:17.887Z,0
2017-04-07T02:55:58.451Z,0
2017-04-07T02:56:39.041Z,0
2017-04-07T02:57:19.641Z,0
2017-04-07T02:58:00.204Z,0
2017-04-07T02:58:40.789Z,0
2017-04-07T02:59:21.376Z,0
2017-04-07T03:00:01.961Z,0
2017-04-07T03:00:42.559Z,0
2017-04-07T03:01:23.131Z,0
2017-04-07T03:02:03.725Z,0
2017-04-07T03:02:44.296Z,0
2017-04-07T03:03:24.890Z,0
2017-04-07T03:04:05.472Z,0
2017-04-07T03:04:46.073Z,0
2017-04-07T03:05:26.654Z,0
2017-04-07T03:06:07.258Z,0
2017-04-07T03:06:47.864Z,0
2017-04-07T03:07:28.457Z,0
2017-04-07T03:08:09.035Z,0
2017-04-07T03:08:49.606Z,0
2017-04-07T03:09:30.218Z,0
2017-04-07T03:10:10.789Z,0
2017-04-07T03:10:51.385Z,0
2017-04-07T03:11:31.972Z,0
2017-04-07T03:12:12.581Z,0
2017-04-07T03:12:53.161Z,0
2017-04-07T03:13:33.747Z,0
2017-04-07T03:14:14.331Z,0
2017-04-07T03:14:54.933Z,0
2017-04-07T03:15:35.506Z,0
2017-04-07T03:16:16.075Z,0
2017-04-07T03:16:56.660Z,0
2017-04-07T03:17:37.259Z,0
2017-04-07T03:18:17.980Z,0
2017-04-07T03:18:58.561Z,0
2017-04-07T03:19:39.183Z,0
2017-04-07T03:20:19.763Z,0
2017-04-07T03:21:00.349Z,0
2017-04-07T03:21:40.934Z,0
2017-04-07T03:22:21.503Z,0
2017-04-07T03:23:02.092Z,0
2017-04-07T03:23:42.667Z,0
2017-04-07T03:24:23.261Z,0
2017-04-07T03:25:03.828Z,0
2017-04-07T03:25:44.451Z,0
2017-04-07T03:26:25.033Z,0
2017-04-07T03:27:05.607Z,0
2017-04-07T03:27:46.174Z,0
2017-04-07T03:28:26.751Z,0
2017-04-07T03:29:07.335Z,0
2017-04-07T03:29:47.951Z,0
2017-04-07T03:30:28.522Z,0
2017-04-07T03:31:09.108Z,0
2017-04-07T03:31:49.711Z,0
2017-04-07T03:32:30.303Z,0
2017-04-07T03:33:10.890Z,0
2017-04-07T03:33:51.464Z,0
2017-04-07T03:34:32.057Z,0
2017-04-07T03:35:12.624Z,0
2017-04-07T03:35:53.195Z,0
2017-04-07T03:36:33.758Z,0
2017-04-07T03:37:14.350Z,0
2017-04-07T03:37:54.922Z,0
2017-04-07T03:38:35.518Z,0
2017-04-07T03:39:16.095Z,0
2017-04-07T03:39:56.685Z,0
2017-04-07T03:40:37.252Z,0
2017-04-07T03:41:17.856Z,0
2017-04-07T03:41:58.434Z,0
2017-04-07T03:42:39.034Z,0
2017-04-07T03:43:19.607Z,0
2017-04-07T03:44:00.174Z,0
2017-04-07T03:44:40.747Z,0
2017-04-07T03:45:21.321Z,0
2017-04-07T03:46:01.889Z,0
2017-04-07T03:46:42.467Z,0
2017-04-07T03:47:23.040Z,0
2017-04-07T03:48:03.624Z,0
2017-04-07T03:48:44.267Z,0
2017-04-07T03:49:24.857Z,0
2017-04-07T03:50:05.445Z,0
2017-04-07T03:50:46.059Z,0
2017-04-07T03:51:26.599Z,0
2017-04-07T03:52:07.197Z,0
2017-04-07T03:52:47.763Z,0
2017-04-07T03:53:28.364Z,0
2017-04-07T03:54:08.971Z,0
2017-04-07T03:54:49.565Z,0
2017-04-07T03:55:30.130Z,0
2017-04-07T03:56:10.728Z,0
2017-04-07T03:56:51.317Z,0
2017-04-07T03:57:31.893Z,0
2017-04-07T03:58:12.467Z,0
2017-04-07T03:58:53.053Z,0
2017-04-07T03:59:33.618Z,0
2017-04-07T04:00:14.199Z,0
2017-04-07T04:00:54.799Z,0
2017-04-07T04:01:35.387Z,0
2017-04-07T04:02:15.956Z,0
2017-04-07T04:02:56.537Z,0
2017-04-07T04:03:37.119Z,0
2017-04-07T04:04:17.720Z,0
2017-04-07T04:04:58.362Z,0
2017-04-07T04:05:38.962Z,0
2017-04-07T04:06:19.556Z,0
2017-04-07T04:07:00.155Z,0
2017-04-07T04:07:40.768Z,0
2017-04-07T04:08:21.362Z,0
2017-04-07T04:09:01.928Z,0
2017-04-07T04:09:42.503Z,0
2017-04-07T04:10:23.078Z,0
2017-04-07T04:11:03.682Z,0
2017-04-07T04:11:44.385Z,0
2017-04-07T04:12:24.959Z,0
2017-04-07T04:13:05.551Z,0
2017-04-07T04:13:46.145Z,0
2017-04-07T04:14:26.729Z,0
2017-04-07T04:15:07.315Z,0
2017-04-07T04:15:47.948Z,0
2017-04-07T04:16:28.517Z,0
2017-04-07T04:17:09.104Z,0
2017-04-07T04:17:49.788Z,0
2017-04-07T04:18:30.393Z,0
2017-04-07T04:19:10.971Z,0
2017-04-07T04:19:51.558Z,0
2017-04-07T04:20:32.132Z,0
2017-04-07T04:21:12.710Z,0
2017-04-07T04:21:53.302Z,0
2017-04-07T04:22:33.883Z,0
2017-04-07T04:23:14.473Z,0
2017-04-07T04:23:55.051Z,0
2017-04-07T04:24:35.630Z,0
2017-04-07T04:25:16.219Z,0
2017-04-07T04:25:56.831Z,0
2017-04-07T04:26:37.406Z,0
2017-04-07T04:27:18.015Z,0
2017-04-07T04:27:58.627Z,0
2017-04-07T04:28:39.210Z,0
2017-04-07T04:29:19.776Z,0
2017-04-07T04:30:00.351Z,0
2017-04-07T04:30:41.043Z,0
2017-04-07T04:31:21.633Z,0
2017-04-07T04:32:02.207Z,0
2017-04-07T04:32:42.786Z,0
2017-04-07T04:33:23.445Z,0
2017-04-07T04:34:04.065Z,0
2017-04-07T04:34:44.650Z,0
2017-04-07T04:35:25.223Z,0
2017-04-07T04:36:05.808Z,0
2017-04-07T04:36:46.553Z,0
2017-04-07T04:37:27.136Z,0
2017-04-07T04:38:07.752Z,0
2017-04-07T04:38:48.325Z,0
2017-04-07T04:39:28.906Z,0
2017-04-07T04:40:09.559Z,0
2017-04-07T04:40:50.225Z,0
2017-04-07T04:41:30.935Z,0
2017-04-07T04:42:11.416Z,0
2017-04-07T04:42:52.016Z,0
2017-04-07T04:43:32.585Z,0
2017-04-07T04:44:13.173Z,0
2017-04-07T04:44:53.754Z,0
2017-04-07T04:45:34.335Z,0
2017-04-07T04:46:14.916Z,0
2017-04-07T04:46:55.506Z,0
2017-04-07T04:47:36.056Z,0
2017-04-07T04:48:16.639Z,0
2017-04-07T04:48:57.219Z,0
2017-04-07T04:49:37.796Z,0
2017-04-07T04:50:18.371Z,0
2017-04-07T04:50:59.020Z,0
2017-04-07T04:51:39.676Z,0
2017-04-07T04:52:20.268Z,0
2017-04-07T04:53:00.847Z,0
2017-04-07T04:53:41.440Z,0
2017-04-07T04:54:22.014Z,0
2017-04-07T04:55:02.702Z,0
2017-04-07T04:55:43.311Z,0
2017-04-07T04:56:23.903Z,0
2017-04-07T04:57:04.484Z,0
2017-04-07T04:57:45.078Z,0
2017-04-07T04:58:25.637Z,0
2017-04-07T04:59:06.203Z,0
2017-04-07T04:59:47.649Z,0
2017-04-07T05:00:28.236Z,0
2017-04-07T05:01:08.824Z,0
2017-04-07T05:01:49.440Z,0
2017-04-07T05:02:30.016Z,0
2017-04-07T05:03:10.593Z,0
2017-04-07T05:03:51.161Z,0
2017-04-07T05:04:31.737Z,0
2017-04-07T05:05:12.333Z,0
2017-04-07T05:05:52.923Z,0
2017-04-07T05:06:33.497Z,0
2017-04-07T05:07:14.077Z,0
2017-04-07T05:07:55.061Z,0
2017-04-07T05:08:35.647Z,0
2017-04-07T05:09:16.215Z,0
2017-04-07T05:09:56.790Z,0
2017-04-07T05:10:37.358Z,0
2017-04-07T05:11:19.113Z,0
2017-04-07T05:11:59.747Z,0
2017-04-07T05:12:40.317Z,0
2017-04-07T05:13:20.900Z,0
2017-04-07T05:14:01.494Z,0
2017-04-07T05:14:42.065Z,5
2017-04-07T05:15:22.639Z,5
2017-04-07T05:16:03.217Z,5
2017-04-07T05:16:43.856Z,5
2017-04-07T05:17:24.446Z,5
2017-04-07T05:18:05.099Z,5
2017-04-07T05:18:45.687Z,5
2017-04-07T05:19:26.275Z,5
2017-04-07T05:20:06.879Z,5
2017-04-07T05:20:47.450Z,5
2017-04-07T05:21:28.041Z,5
2017-04-07T05:22:08.614Z,5
2017-04-07T05:22:49.176Z,5
2017-04-07T05:23:29.749Z,5
2017-04-07T05:24:10.325Z,5
2017-04-07T05:24:50.919Z,5
2017-04-07T05:25:31.487Z,5
2017-04-07T05:26:12.094Z,5
2017-04-07T05:26:52.686Z,5
2017-04-07T05:27:33.269Z,5
2017-04-07T05:28:13.850Z,5
2017-04-07T05:28:54.455Z,5
2017-04-07T05:29:35.022Z,5
2017-04-07T05:30:15.641Z,5
2017-04-07T05:30:56.213Z,5
2017-04-07T05:31:36.788Z,5
2017-04-07T05:32:17.371Z,5
2017-04-07T05:32:57.956Z,5
2017-04-07T05:33:38.558Z,5
2017-04-07T05:34:19.129Z,5
2017-04-07T05:34:59.711Z,5
2017-04-07T05:35:40.297Z,5
2017-04-07T05:36:20.879Z,5
2017-04-07T05:37:01.456Z,5
2017-04-07T05:37:42.025Z,5
2017-04-07T05:38:22.591Z,5
2017-04-07T05:39:03.169Z,5
2017-04-07T05:39:43.719Z,5
2017-04-07T05:40:24.287Z,10
2017-04-07T05:41:04.907Z,5
2017-04-07T05:41:45.500Z,5
2017-04-07T05:42:26.100Z,5
2017-04-07T05:43:06.716Z,5
2017-04-07T05:43:47.344Z,5
2017-04-07T05:44:27.911Z,5
2017-04-07T05:45:08.496Z,5
2017-04-07T05:45:49.073Z,5
2017-04-07T05:46:29.692Z,5
2017-04-07T05:47:10.276Z,10
2017-04-07T05:47:50.878Z,10
2017-04-07T05:48:31.489Z,5
2017-04-07T05:49:12.163Z,10
2017-04-07T05:49:52.772Z,10
2017-04-07T05:50:33.331Z,10
2017-04-07T05:51:13.978Z,10
2017-04-07T05:51:54.538Z,10
2017-04-07T05:52:35.106Z,10
2017-04-07T05:53:15.682Z,10
2017-04-07T05:53:56.257Z,10
2017-04-07T05:54:36.823Z,10
2017-04-07T05:55:17.399Z,10
2017-04-07T05:55:57.969Z,10
2017-04-07T05:56:38.546Z,10
2017-04-07T05:57:19.115Z,10
2017-04-07T05:57:59.695Z,10
2017-04-07T05:58:40.263Z,10
2017-04-07T05:59:20.903Z,10
2017-04-07T06:00:01.506Z,10
2017-04-07T06:00:42.154Z,15
2017-04-07T06:01:22.725Z,15
2017-04-07T06:02:03.335Z,10
2017-04-07T06:02:43.902Z,10
2017-04-07T06:03:24.482Z,10
2017-04-07T06:04:05.063Z,10
2017-04-07T06:04:45.667Z,10
2017-04-07T06:05:26.240Z,10
2017-04-07T06:06:06.838Z,10
2017-04-07T06:06:47.420Z,10
2017-04-07T06:07:27.993Z,10
2017-04-07T06:08:08.577Z,10
2017-04-07T06:08:49.149Z,10
2017-04-07T06:09:29.773Z,10
2017-04-07T06:10:10.381Z,10
2017-04-07T06:10:50.965Z,10
2017-04-07T06:11:31.566Z,10
2017-04-07T06:12:12.183Z,10
2017-04-07T06:12:52.797Z,10
2017-04-07T06:13:33.381Z,10
2017-04-07T06:14:14.029Z,10
2017-04-07T06:14:54.597Z,10
2017-04-07T06:15:35.218Z,10
2017-04-07T06:16:15.810Z,10
2017-04-07T06:16:56.378Z,10
2017-04-07T06:17:37.009Z,10
2017-04-07T06:18:17.740Z,10
2017-04-07T06:18:58.440Z,10
2017-04-07T06:19:39.025Z,10
2017-04-07T06:20:19.633Z,10
2017-04-07T06:21:00.611Z,15
2017-04-07T06:21:41.200Z,15
2017-04-07T06:22:21.886Z,15
2017-04-07T06:23:02.459Z,10
2017-04-07T06:23:43.048Z,10
2017-04-07T06:24:24.490Z,10
2017-04-07T06:25:05.103Z,10
2017-04-07T06:25:45.702Z,10
2017-04-07T06:26:26.410Z,10
2017-04-07T06:27:06.991Z,15
2017-04-07T06:27:47.568Z,15
2017-04-07T06:28:28.137Z,15
2017-04-07T06:29:08.721Z,10
2017-04-07T06:29:49.294Z,10
2017-04-07T06:30:29.865Z,10
2017-04-07T06:31:10.447Z,15
2017-04-07T06:31:51.032Z,15
2017-04-07T06:32:31.622Z,10
2017-04-07T06:33:12.202Z,10
2017-04-07T06:33:52.775Z,10
2017-04-07T06:34:33.351Z,15
2017-04-07T06:35:14.010Z,10
2017-04-07T06:35:54.596Z,10
2017-04-07T06:36:35.184Z,10
2017-04-07T06:37:15.858Z,10
2017-04-07T06:37:56.435Z,10
2017-04-07T06:38:37.004Z,10
2017-04-07T06:39:17.597Z,10
2017-04-07T06:39:58.170Z,10
2017-04-07T06:40:38.747Z,10
2017-04-07T06:41:19.323Z,10
2017-04-07T06:41:59.921Z,10
2017-04-07T06:42:40.504Z,10
2017-04-07T06:43:21.147Z,10
2017-04-07T06:44:01.760Z,10
2017-04-07T06:44:42.324Z,10
2017-04-07T06:45:23.220Z,10
2017-04-07T06:46:04.742Z,10
2017-04-07T06:46:45.567Z,10
2017-04-07T06:47:26.135Z,10
2017-04-07T06:48:06.723Z,10
2017-04-07T06:48:47.336Z,15
2017-04-07T06:49:27.911Z,15
2017-04-07T06:50:08.486Z,15
2017-04-07T06:50:49.072Z,15
2017-04-07T06:51:29.635Z,15
2017-04-07T06:52:10.413Z,15
2017-04-07T06:52:51.088Z,15
2017-04-07T06:53:31.686Z,15
2017-04-07T06:54:20.923Z,15
2017-04-07T06:55:01.541Z,15
2017-04-07T06:55:42.156Z,15
2017-04-07T06:56:22.836Z,15
2017-04-07T06:57:03.637Z,10
2017-04-07T06:57:44.202Z,10
2017-04-07T06:58:24.777Z,10
2017-04-07T06:59:05.378Z,10
2017-04-07T06:59:46.007Z,10
2017-04-07T07:00:26.641Z,10
2017-04-07T07:01:07.227Z,10
2017-04-07T07:01:47.801Z,15
2017-04-07T07:02:28.378Z,15
2017-04-07T07:03:08.953Z,15
2017-04-07T07:03:49.571Z,15
2017-04-07T07:04:30.268Z,15
2017-04-07T07:05:10.858Z,15
2017-04-07T07:05:51.505Z,15
2017-04-07T07:06:32.167Z,15
2017-04-07T07:07:12.835Z,20
2017-04-07T07:07:53.438Z,20
2017-04-07T07:08:34.023Z,20
2017-04-07T07:09:14.633Z,20
2017-04-07T07:09:55.250Z,20
2017-04-07T07:10:35.835Z,20
2017-04-07T07:11:16.454Z,20
2017-04-07T07:11:57.039Z,20
2017-04-07T07:12:37.686Z,25
2017-04-07T07:13:18.264Z,20
2017-04-07T07:13:58.857Z,20
2017-04-07T07:14:39.453Z,20
2017-04-07T07:15:20.028Z,20
2017-04-07T07:16:00.645Z,20
2017-04-07T07:16:41.218Z,20
2017-04-07T07:17:21.856Z,25
2017-04-07T07:18:02.454Z,25
2017-04-07T07:18:43.118Z,25
2017-04-07T07:19:23.717Z,25
2017-04-07T07:20:04.273Z,25
2017-04-07T07:20:44.840Z,25
2017-04-07T07:21:25.441Z,25
2017-04-07T07:22:06.227Z,30
2017-04-07T07:22:46.802Z,30
2017-04-07T07:23:27.435Z,30
2017-04-07T07:24:08.034Z,25
2017-04-07T07:24:48.608Z,30
2017-04-07T07:25:29.220Z,30
2017-04-07T07:26:09.936Z,30
2017-04-07T07:26:50.538Z,25
2017-04-07T07:27:31.159Z,25
2017-04-07T07:28:11.805Z,25
2017-04-07T07:28:52.418Z,25
2017-04-07T07:29:33.052Z,25
2017-04-07T07:30:13.649Z,25
2017-04-07T07:30:54.247Z,20
2017-04-07T07:31:34.868Z,20
2017-04-07T07:32:15.454Z,20
2017-04-07T07:32:56.029Z,20
2017-04-07T07:33:36.601Z,20
2017-04-07T07:34:17.281Z,20
2017-04-07T07:34:57.873Z,20
2017-04-07T07:35:38.463Z,20
2017-04-07T07:36:19.069Z,25
2017-04-07T07:36:59.663Z,25
2017-04-07T07:37:40.287Z,30
2017-04-07T07:38:20.873Z,35
2017-04-07T07:39:01.520Z,35
2017-04-07T07:39:42.128Z,35
2017-04-07T07:40:22.720Z,30
2017-04-07T07:41:03.305Z,30
2017-04-07T07:41:43.875Z,25
2017-04-07T07:42:24.477Z,25
2017-04-07T07:43:05.202Z,25
2017-04-07T07:43:45.798Z,30
2017-04-07T07:44:26.392Z,30
2017-04-07T07:45:06.996Z,35
2017-04-07T07:45:47.591Z,35
2017-04-07T07:46:28.214Z,35
2017-04-07T07:47:08.843Z,35
2017-04-07T07:47:49.444Z,35
2017-04-07T07:48:30.053Z,35
2017-04-07T07:49:10.642Z,40
2017-04-07T07:49:51.261Z,45
2017-04-07T07:50:31.864Z,45
2017-04-07T07:51:12.472Z,40
2017-04-07T07:51:53.063Z,40
2017-04-07T07:52:33.677Z,40
2017-04-07T07:53:14.290Z,40
2017-04-07T07:53:54.908Z,35
2017-04-07T07:54:35.547Z,40
2017-04-07T07:55:16.145Z,40
2017-04-07T07:55:56.766Z,45
2017-04-07T07:56:37.456Z,50
2017-04-07T07:57:18.140Z,45
2017-04-07T07:57:58.779Z,45
2017-04-07T07:58:39.376Z,50
2017-04-07T07:59:19.986Z,45
2017-04-07T08:00:00.603Z,45
2017-04-07T08:00:41.311Z,45
2017-04-07T08:01:22.132Z,50
2017-04-07T08:02:44.247Z,50
2017-04-07T08:03:24.892Z,50
2017-04-07T08:04:05.564Z,50
2017-04-07T08:04:46.167Z,50
2017-04-07T08:05:26.975Z,50
2017-04-07T08:06:07.559Z,45
2017-04-07T08:06:48.152Z,50
2017-04-07T08:07:28.796Z,45
2017-04-07T08:08:09.445Z,50
2017-04-07T08:08:50.047Z,45
2017-04-07T08:09:30.795Z,45
2017-04-07T08:10:11.341Z,45
2017-04-07T08:10:51.918Z,45
2017-04-07T08:11:32.552Z,45
2017-04-07T08:12:13.205Z,45
2017-04-07T08:12:53.796Z,45
2017-04-07T08:13:34.390Z,45
2017-04-07T08:14:15.132Z,45
2017-04-07T08:14:55.708Z,50
2017-04-07T08:15:36.475Z,45
2017-04-07T08:16:17.039Z,40
2017-04-07T08:16:57.623Z,40
2017-04-07T08:17:38.192Z,40
2017-04-07T08:18:18.771Z,45
2017-04-07T08:18:59.360Z,45
2017-04-07T08:19:39.948Z,40
2017-04-07T08:20:20.582Z,35
2017-04-07T08:21:01.186Z,35
2017-04-07T08:21:41.770Z,35
2017-04-07T08:22:22.348Z,35
2017-04-07T08:23:03.068Z,30
2017-04-07T08:23:43.647Z,30
2017-04-07T08:24:24.222Z,30
2017-04-07T08:25:04.791Z,30
2017-04-07T08:25:45.404Z,35
2017-04-07T08:26:25.985Z,35
2017-04-07T08:27:06.789Z,40
2017-04-07T08:27:47.376Z,50
2017-04-07T08:28:28.169Z,50
2017-04-07T08:29:08.836Z,55
2017-04-07T08:29:49.750Z,50
2017-04-07T08:30:30.442Z,45
2017-04-07T08:31:11.162Z,45
2017-04-07T08:31:51.748Z,40
2017-04-07T08:32:32.340Z,40
2017-04-07T08:33:12.962Z,40
2017-04-07T08:33:53.556Z,40
2017-04-07T08:34:34.277Z,45
2017-04-07T08:35:14.891Z,45
2017-04-07T08:35:55.454Z,40
2017-04-07T08:36:36.112Z,40
2017-04-07T08:37:16.686Z,35
2017-04-07T08:37:57.323Z,35
2017-04-07T08:44:22.025Z,25
2017-04-07T08:45:02.598Z,30
2017-04-07T08:45:43.173Z,35
2017-04-07T08:46:23.865Z,30
2017-04-07T08:47:04.404Z,35
2017-04-07T08:47:44.978Z,30
2017-04-07T08:48:25.579Z,30
2017-04-07T08:49:06.131Z,25
2017-04-07T08:49:46.750Z,25
2017-04-07T08:50:27.316Z,25
2017-04-07T08:51:07.890Z,30
2017-04-07T08:51:48.479Z,30
2017-04-07T08:52:29.057Z,35
2017-04-07T08:53:09.658Z,35
2017-04-07T08:53:50.260Z,40
2017-04-07T08:54:30.856Z,40
2017-04-07T08:55:11.442Z,35
2017-04-07T08:55:52.027Z,35
2017-04-07T08:56:32.634Z,40
2017-04-07T08:57:13.242Z,40
2017-04-07T08:57:53.891Z,40
2017-04-07T08:58:34.470Z,35
2017-04-07T08:59:15.057Z,35
2017-04-07T08:59:55.628Z,40
2017-04-07T09:00:36.216Z,35
2017-04-07T09:01:16.814Z,35
2017-04-07T09:01:57.420Z,40
2017-04-07T09:02:38.034Z,40
2017-04-07T09:03:18.659Z,35
2017-04-07T09:03:59.255Z,40
2017-04-07T09:04:39.859Z,40
2017-04-07T09:05:20.474Z,45
2017-04-07T09:06:01.104Z,45
2017-04-07T09:06:41.711Z,40
2017-04-07T09:07:22.279Z,35
2017-04-07T09:08:02.879Z,35
2017-04-07T09:08:43.440Z,35
2017-04-07T09:09:24.017Z,30
2017-04-07T09:10:04.584Z,30
2017-04-07T09:10:45.153Z,30
2017-04-07T09:11:25.760Z,30
2017-04-07T09:12:06.346Z,35
2017-04-07T09:12:46.932Z,30
2017-04-07T09:13:27.523Z,30
2017-04-07T09:14:08.121Z,30
2017-04-07T09:14:48.734Z,30
2017-04-07T09:15:29.319Z,30
2017-04-07T09:16:09.931Z,35
2017-04-07T09:16:50.515Z,30
2017-04-07T09:17:31.119Z,25
2017-04-07T09:18:11.710Z,30
2017-04-07T09:18:52.304Z,30
2017-04-07T09:19:32.918Z,30
2017-04-07T09:20:13.488Z,30
2017-04-07T09:20:54.069Z,25
2017-04-07T09:21:34.649Z,30
2017-04-07T09:22:15.227Z,30
2017-04-07T09:22:55.797Z,30
2017-04-07T09:23:36.402Z,30
2017-04-07T09:24:16.974Z,30
2017-04-07T09:24:57.562Z,30
2017-04-07T09:25:38.120Z,30
2017-04-07T09:26:18.732Z,35
2017-04-07T09:26:59.366Z,35
2017-04-07T09:27:39.956Z,30
2017-04-07T09:28:20.556Z,35
2017-04-07T09:29:01.121Z,35
2017-04-07T09:29:41.690Z,40
2017-04-07T09:30:22.277Z,40
2017-04-07T09:31:02.859Z,40
2017-04-07T09:31:43.441Z,40
2017-04-07T09:32:24.027Z,35
2017-04-07T09:33:04.614Z,35
2017-04-07T09:33:45.210Z,35
2017-04-07T09:34:25.802Z,35
2017-04-07T09:35:06.487Z,35
2017-04-07T09:35:47.077Z,35
2017-04-07T09:36:27.659Z,30
2017-04-07T09:37:08.264Z,30
2017-04-07T09:37:48.840Z,35
2017-04-07T09:38:29.425Z,35
2017-04-07T09:39:10.029Z,35
2017-04-07T09:39:50.643Z,40
2017-04-07T09:40:31.239Z,40
2017-04-07T09:41:11.844Z,45
2017-04-07T09:41:52.427Z,45
2017-04-07T09:42:33.069Z,45
2017-04-07T09:43:13.696Z,50
2017-04-07T09:43:54.300Z,50
2017-04-07T09:44:34.910Z,50
2017-04-07T09:45:15.511Z,55
2017-04-07T09:45:56.157Z,60
2017-04-07T09:46:36.884Z,55
2017-04-07T09:47:17.443Z,55
2017-04-07T09:47:58.055Z,60
2017-04-07T09:48:38.622Z,60
2017-04-07T09:49:19.201Z,65
2017-04-07T09:49:59.800Z,60
2017-04-07T09:50:40.373Z,60
2017-04-07T09:51:20.960Z,55
2017-04-07T09:52:01.596Z,55
2017-04-07T09:52:42.169Z,55
2017-04-07T09:53:22.768Z,60
2017-04-07T09:54:03.339Z,60
2017-04-07T09:54:43.911Z,60
2017-04-07T09:55:24.527Z,60
2017-04-07T09:56:05.083Z,60
2017-04-07T09:56:45.670Z,55
2017-04-07T09:57:26.251Z,55